• Join FlightAware (Why Join?)
  • Login
  • US Flag 
09:46AM EDT


 

Airport Tracker/Info


-or-


 

Live Flight TrackerFlight Track Log ✈ AAL2345 ✈ 20-Sep-2013 ✈ KORD - KDFW

Flight Track Log - Related Links

Times and Time Zones

All times are in EDT time to prevent confusion due to time zone crossing. See the AAL2345 flight status page for this flight to view local times or setup timezone preferences in your user account.

Time Position Orientation Groundspeed Altitude Reporting Facility
EDT Latitude Longitude Course Direction KTS MPH feet Rate Location/Type
07:39PM 41.9333 -87.9167 194° South 186 214 1,900  Level Chicago TRACON
07:40PM 41.8833 -87.9667 217° Southwest 214 246 3,900 1,980 Climbing Chicago TRACON
07:41PM 41.8167 -87.9667 180° South 253 291 5,900 2,040 Climbing Chicago TRACON
07:43PM 41.7364 -87.9719 183° South 275 316 8,500 2,220 Climbing Chicago Center
07:44PM 41.6125 -88.3420 203° Southwest  Level Estimated
07:44PM 41.6689 -88.0164 206° Southwest 272 313 11,000  Level Chicago Center
07:45PM 41.5385 -88.4285 194° South  Level Estimated
07:45PM 41.5944 -88.0592 203° Southwest 288 331 13,200  Level Chicago Center
07:46PM 41.5150 -88.1108 206° Southwest 317 365 14,300 1,500 Climbing Chicago Center
07:47PM 41.4083 -88.1783 205° Southwest 364 419 16,400 1,980 Climbing Chicago Center
07:48PM 41.3092 -88.2194 197° South 383 441 18,400 1,980 Climbing Chicago Center
07:49PM 41.2092 -88.2686 200° South 386 444 20,500 1,680 Climbing Chicago Center
07:50PM 41.1075 -88.3228 202° Southwest 393 452 21,900 1,500 Climbing Chicago Center
07:51PM 40.9786 -88.3719 196° South 405 466 23,600 1,440 Climbing Chicago Center
07:52PM 40.8950 -88.4669 221° Southwest 408 470 24,900 1,200 Climbing Chicago Center
07:53PM 40.8158 -88.5714 225° Southwest 403 464 26,200 1,200 Climbing Chicago Center
07:54PM 40.7256 -88.6608 217° Southwest 408 470 27,500 1,200 Climbing Chicago Center
07:55PM 40.6397 -88.7539 219° Southwest 403 464 28,800 1,020 Climbing Chicago Center
07:56PM 40.5422 -88.8578 219° Southwest 393 452 29,700 480 Climbing Chicago Center
07:57PM 40.4597 -88.9444 219° Southwest 383 441 29,900 120 Climbing Chicago Center
07:58PM 40.3772 -89.0350 220° Southwest 385 443 30,000  Climbing Chicago Center
07:59PM 40.2944 -89.1242 219° Southwest 384 442 30,000  Level Chicago Center
08:00PM 40.2114 -89.2133 219° Southwest 385 443 30,000  Level Chicago Center
08:01PM 40.1297 -89.3022 220° Southwest 382 440 30,000  Level Chicago Center
08:02PM 40.0642 -89.3711 219° Southwest 382 440 30,000  Level Kansas City Center
08:03PM 39.9653 -89.4761 219° Southwest 381 438 30,000  Level Kansas City Center
08:04PM 39.8839 -89.5650 220° Southwest 381 438 30,000  Level Kansas City Center
08:05PM 39.8008 -89.6522 219° Southwest 382 440 30,000  Level Kansas City Center
08:06PM 39.7181 -89.7403 219° Southwest 383 441 30,000  Level Kansas City Center
08:07PM 39.6389 -89.8256 220° Southwest 383 441 30,000  Level Kansas City Center
08:08PM 39.5553 -89.9122 219° Southwest 384 442 30,000  Level Kansas City Center
08:09PM 39.4564 -90.0178 220° Southwest 385 443 30,000  Level Kansas City Center
08:10PM 39.3747 -90.1039 219° Southwest 381 438 30,000  Level Kansas City Center
08:11PM 39.2919 -90.1903 219° Southwest 383 441 30,000  Level Kansas City Center
08:12PM 39.2097 -90.2767 219° Southwest 383 441 30,000  Level Kansas City Center
08:13PM 39.1278 -90.3628 219° Southwest 382 440 30,000  Level Kansas City Center
08:14PM 39.0450 -90.4486 219° Southwest 385 443 30,000  Level Kansas City Center
08:16PM 38.9453 -90.5525 219° Southwest 387 445 30,000  Level Kansas City Center
08:17PM 38.8692 -90.6306 219° Southwest 382 440 30,000  Level Kansas City Center
08:18PM 38.7800 -90.7211 218° Southwest 386 444 30,000  Level Kansas City Center
08:19PM 38.6961 -90.8050 218° Southwest 386 444 30,000  Level Kansas City Center
08:20PM 38.5956 -90.9089 219° Southwest 388 447 30,000  Level Kansas City Center
08:21PM 38.5106 -90.9947 218° Southwest 390 449 30,000  Level Kansas City Center
08:22PM 38.4253 -91.0808 218° Southwest 393 452 30,000  Level Kansas City Center
08:23PM 38.3406 -91.1664 218° Southwest 392 451 30,000  Level Kansas City Center
08:24PM 38.2539 -91.2531 218° Southwest 394 453 30,000  Level Kansas City Center
08:25PM 38.1689 -91.3378 218° Southwest 392 451 30,000  Level Kansas City Center
08:26PM 38.0792 -91.4253 218° Southwest 395 455 30,000  Level Kansas City Center
08:27PM 37.9750 -91.5289 218° Southwest 395 455 30,000  Level Kansas City Center
08:28PM 37.8867 -91.6164 218° Southwest 398 458 30,000  Level Kansas City Center
08:29PM 37.7992 -91.7036 218° Southwest 399 459 30,000  Level Kansas City Center
08:30PM 37.7131 -91.7919 219° Southwest 397 457 30,000  Level Kansas City Center
08:31PM 37.6244 -91.8781 218° Southwest 398 458 30,000  Level Kansas City Center
08:32PM 37.5356 -91.9650 218° Southwest 399 459 30,000  Level Kansas City Center
08:33PM 37.4514 -92.0556 221° Southwest 397 457 30,000  Level Kansas City Center
08:34PM 37.3681 -92.1500 222° Southwest 398 458 30,000  Level Kansas City Center
08:35PM 37.2839 -92.2425 221° Southwest 399 459 30,000  Level Kansas City Center
08:36PM 37.1997 -92.3350 221° Southwest 399 459 30,000  Level Kansas City Center
08:37PM 37.0997 -92.4464 222° Southwest 399 459 30,000  Level Kansas City Center
08:38PM 37.0169 -92.5367 221° Southwest 396 456 30,000  Level Kansas City Center
08:39PM 36.9322 -92.6281 221° Southwest 398 458 30,000  Level Kansas City Center
08:40PM 36.8489 -92.7181 221° Southwest 397 457 30,000  Level Kansas City Center
08:41PM 36.7653 -92.8081 221° Southwest 395 455 30,000  Level Kansas City Center
08:42PM 36.6817 -92.8983 221° Southwest 397 457 30,000  Level Kansas City Center
08:43PM 36.5886 -92.9964 220° Southwest 397 457 30,000  Level Kansas City Center
08:44PM 36.5050 -93.0867 221° Southwest 399 459 30,000  Level Kansas City Center
08:45PM 36.4208 -93.1769 221° Southwest 401 461 30,000  Level Kansas City Center
08:46PM 36.3672 -93.2408 224° Southwest 400 460 30,000  Level Memphis Center
08:47PM 36.2858 -93.3281 221° Southwest 400 460 30,000  Level Memphis Center
08:48PM 36.2003 -93.4203 221° Southwest 400 460 30,000  Level Memphis Center
08:49PM 36.1147 -93.5119 221° Southwest 400 460 30,000  Level Memphis Center
08:50PM 36.0289 -93.6011 220° Southwest 405 466 30,000  Level Memphis Center
08:51PM 35.9411 -93.6925 220° Southwest 405 466 30,000  Level Memphis Center
08:52PM 35.8553 -93.7814 220° Southwest 405 466 30,000  Level Memphis Center
08:53PM 35.7714 -93.8725 221° Southwest 410 472 30,000  Level Memphis Center
08:54PM 35.6853 -93.9633 221° Southwest 410 472 30,000  Level Memphis Center
08:55PM 35.6014 -94.0542 221° Southwest 415 478 30,000  Level Memphis Center
08:56PM 35.5131 -94.1422 219° Southwest 410 472 30,000  Level Memphis Center
08:57PM 35.4269 -94.2300 220° Southwest 410 472 30,000  Level Memphis Center
08:58PM 35.3450 -94.3203 222° Southwest 410 472 30,000  Level Memphis Center
08:59PM 35.2608 -94.4106 221° Southwest 410 472 30,000  Level Memphis Center
09:01PM 35.0911 -94.5972 222° Southwest 410 472 30,000  Level Fort Worth Center
09:02PM 35.0056 -94.6911 222° Southwest 410 472 30,000  Level Fort Worth Center
09:03PM 34.9219 -94.7825 222° Southwest 410 472 30,000  Level Fort Worth Center
09:04PM 34.8361 -94.8736 221° Southwest 410 472 30,000  Level Fort Worth Center
09:05PM 34.7525 -94.9647 222° Southwest 405 466 30,000  Level Fort Worth Center
09:06PM 34.6536 -95.0356 211° Southwest 411 473 30,000  Level Fort Worth Center
09:07PM 34.5344 -95.0189 173° South 407 468 30,000  Level Fort Worth Center
09:08PM 34.4169 -94.9867 167° South 412 474 30,000  Level Fort Worth Center
09:09PM 34.2975 -94.9575 169° South 433 498 30,000  Level Fort Worth Center
09:10PM 34.1922 -95.0106 203° Southwest 396 456 30,000  Level Fort Worth Center
09:11PM 34.1275 -95.1278 236° Southwest 378 435 30,000 -180 Level Fort Worth Center
09:12PM 34.0669 -95.2472 239° Southwest 396 456 29,700 -600 Descending Fort Worth Center
09:13PM 34.0044 -95.3667 238° Southwest 414 476 28,800 -960 Descending Fort Worth Center
09:14PM 33.9394 -95.4833 236° Southwest 426 490 27,800 -1,080 Descending Fort Worth Center
09:15PM 33.8764 -95.5922 235° Southwest 419 482 26,700 -1,080 Descending Fort Worth Center
09:16PM 33.8153 -95.7011 236° Southwest 404 465 25,700 -1,020 Descending Fort Worth Center
09:17PM 33.7500 -95.8072 234° Southwest 404 465 24,700 -1,080 Descending Fort Worth Center
09:18PM 33.6864 -95.9131 234° Southwest 399 459 23,600 -1,080 Descending Fort Worth Center
09:19PM 33.6314 -96.0089 235° Southwest 399 459 22,600 -1,440 Descending Fort Worth Center
09:20PM 33.5614 -96.1222 233° Southwest 394 453 20,800 -1,980 Descending Fort Worth Center
09:21PM 33.5083 -96.2178 236° Southwest 388 447 18,700 -2,340 Descending Fort Worth Center
09:22PM 33.4383 -96.3331 234° Southwest 388 447 16,200 -2,220 Descending Fort Worth Center
09:23PM 33.3786 -96.4233 232° Southwest 388 447 14,300 -2,040 Descending Fort Worth Center
09:24PM 33.3000 -96.5186 225° Southwest 383 441 12,200 -1,620 Descending Fort Worth Center
09:25PM 33.2233 -96.6064 224° Southwest 377 434 11,100 -600 Descending Fort Worth Center
09:26PM 33.1631 -96.6839 227° Southwest 377 434 11,000 -60 Descending Fort Worth Center
09:27PM 33.0844 -96.7761 225° Southwest 372 428 11,000  Level Fort Worth Center
09:28PM 33.0200 -96.8511 224° Southwest 336 387 11,000 -120 Level Fort Worth Center
09:29PM 32.9556 -96.9033 214° Southwest 311 358 10,800 -900 Descending Fort Worth Center
09:30PM 32.8928 -96.9014 179° South 274 315 9,300 -1,500 Descending Fort Worth Center
09:31PM 32.8094 -96.9067 183° South 274 315 7,800 -1,680 Descending Fort Worth Center
09:32PM 32.7383 -96.9169 187° South 274 315 6,000 -1,620 Descending Fort Worth Center
09:33PM 32.6656 -96.9444 198° South 262 302 4,600 -1,020 Descending Fort Worth Center
09:34PM 32.6594 -97.0086 264° West 196 226 4,000 -600 Descending Fort Worth Center
09:35PM 32.7158 -97.0356 338° Northwest 110 127 3,400 -720 Descending Fort Worth Center
09:36PM 32.7833 -97.0333 North 175 201 2,400 -780 Descending Dallas / Fort Worth TRACON
09:37PM 32.8333 -97.0333 360° North 124 143 1,600 -720 Descending Dallas / Fort Worth TRACON
09:38PM 32.8667 -97.0333 360° North 132 152 1,000 -600 Descending Dallas / Fort Worth TRACON